Time;durP1;ratioP1;P1;durP2;ratioP2;P2;SDS_P1;SDS_P2;PMS_P1;PMS_P2;Temp;Humidity;BMP_temperature;BMP_pressure;BME280_temperature;BME280_humidity;BME280_pressure;Samples;Min_cycle;Max_cycle;Signal;HPM_P1;HPM_P2
2023/10/16 04:46:55;;;;;;;11.68;3.35;;;;;;;9.63;74.59;98364.38;5037793;23;19927;-88
2023/10/16 04:49:28;;;;;;;9.35;3.83;;;;;;;9.71;74.57;98376.38;4873741;29;20121;-87
2023/10/16 04:52:01;;;;;;;10.27;3.90;;;;;;;9.69;73.85;98375.91;4889627;29;20037;-89
2023/10/16 04:54:57;;;;;;;9.60;3.83;;;;;;;9.43;73.27;98355.00;4883958;29;20037;-89
2023/10/16 04:57:37;;;;;;;7.57;3.53;;;;;;;9.64;73.07;98393.28;4871932;29;20045;-90
2023/10/16 05:00:28;;;;;;;8.18;3.38;;;;;;;9.51;73.25;98356.09;4852714;29;20061;-90
2023/10/16 05:03:21;;;;;;;10.00;2.88;;;;;;;9.50;73.18;98379.84;4886117;29;20048;-87
2023/10/16 05:08:48;;;;;;;10.82;3.50;;;;;;;9.69;74.74;98403.19;4855758;29;20052;-89
2023/10/16 06:14:37;;;;;;;12.23;4.75;;;;;;;9.74;75.13;98338.31;4881579;29;20100;-88
2023/10/16 06:17:13;;;;;;;13.13;4.63;;;;;;;9.54;75.09;98309.06;4892388;29;20047;-89
2023/10/16 06:19:42;;;;;;;12.98;4.05;;;;;;;9.95;75.66;98371.06;4857697;29;20513;-90
2023/10/16 06:22:09;;;;;;;10.63;4.65;;;;;;;9.87;75.96;98363.75;4873433;29;20049;-88
2023/10/16 06:24:36;;;;;;;18.48;5.82;;;;;;;9.96;75.42;98388.25;4896871;29;20055;-89
2023/10/16 06:27:09;;;;;;;22.20;7.13;;;;;;;9.51;75.67;98339.75;4896268;29;20084;-87
2023/10/16 06:29:35;;;;;;;20.30;7.60;;;;;;;9.36;75.65;98335.63;4883373;29;20041;-88
2023/10/16 06:32:18;;;;;;;29.73;8.32;;;;;;;9.31;75.85;98341.28;4889433;29;20049;-87
2023/10/16 06:34:57;;;;;;;15.10;6.68;;;;;;;9.36;76.67;98347.34;4861314;29;20049;-89
2023/10/16 06:37:24;;;;;;;19.67;6.82;;;;;;;9.17;76.08;98322.41;4886068;29;20511;-90
2023/10/16 06:39:58;;;;;;;13.98;6.25;;;;;;;9.08;76.22;98319.72;4873552;29;20649;-93
2023/10/16 06:42:25;;;;;;;15.38;7.07;;;;;;;9.51;76.19;98391.56;4853785;29;20498;-92
2023/10/16 06:44:56;;;;;;;;;;;;;;;9.62;76.20;98398.25;4858497;29;20087;-89
2023/10/16 06:47:35;;;;;;;14.98;5.68;;;;;;;9.22;75.95;98321.44;4850696;29;19949;-91
2023/10/16 06:51:14;;;;;;;7.43;4.00;;;;;;;9.51;75.24;98392.38;4878035;29;20048;-91
2023/10/16 06:53:03;;;;;;;10.63;4.40;;;;;;;8.83;76.16;98296.88;4849376;29;20049;-91
2023/10/16 06:55:29;;;;;;;6.72;3.55;;;;;;;8.79;74.91;98295.94;4879005;29;20122;-92
2023/10/16 06:57:55;;;;;;;8.85;3.65;;;;;;;9.09;74.74;98345.06;4867563;29;20045;-92
2023/10/16 07:00:27;;;;;;;;;;;;;;;9.31;75.19;98380.25;4869302;29;20152;-90
2023/10/16 07:02:56;;;;;;;9.85;3.50;;;;;;;9.23;75.89;98369.38;4878749;29;19962;-90
2023/10/16 07:05:43;;;;;;;9.20;3.42;;;;;;;9.20;75.22;98394.56;4872472;29;20083;-89
2023/10/16 07:08:19;;;;;;;9.15;3.40;;;;;;;8.76;75.58;98325.78;4873407;29;20063;-88
2023/10/16 07:10:49;;;;;;;7.07;3.38;;;;;;;8.73;76.13;98304.63;4858176;29;20043;-90
2023/10/16 07:13:29;;;;;;;8.73;3.78;;;;;;;9.18;77.18;98373.09;4845102;29;20112;-89
2023/10/16 07:16:03;;;;;;;24.17;4.60;;;;;;;9.19;77.14;98374.69;4870413;29;20045;-89
2023/10/16 07:18:33;;;;;;;15.85;6.05;;;;;;;9.26;76.92;98374.19;4874775;29;20049;-90
2023/10/16 07:21:09;;;;;;;8.85;4.20;;;;;;;8.86;76.30;98304.41;4866736;29;20045;-90
2023/10/16 07:23:39;;;;;;;8.05;3.67;;;;;;;8.67;77.10;98290.38;4843820;29;20057;-89
2023/10/16 07:26:09;;;;;;;10.50;4.03;;;;;;;8.86;76.98;98341.78;4870097;29;20059;-90
2023/10/16 07:28:36;;;;;;;9.35;3.53;;;;;;;8.60;76.72;98304.50;4861495;29;20037;-88
2023/10/16 07:31:02;;;;;;;7.88;4.32;;;;;;;8.86;77.92;98363.56;4874193;29;20072;-90
2023/10/16 07:33:29;;;;;;;6.78;3.65;;;;;;;8.89;77.11;98363.72;4848218;29;20070;-88
2023/10/16 07:35:57;;;;;;;7.45;3.22;;;;;;;8.77;77.91;98328.16;4840597;29;20041;-87
2023/10/16 07:38:25;;;;;;;7.93;3.20;;;;;;;8.59;77.70;98300.19;4861331;29;20041;-87
2023/10/16 07:40:56;;;;;;;8.93;3.60;;;;;;;9.05;77.86;98349.56;4870743;29;20054;-87
2023/10/16 07:43:27;;;;;;;6.15;3.15;;;;;;;8.97;78.32;98343.00;4853313;29;20052;-87
2023/10/16 07:48:51;;;;;;;7.45;3.88;;;;;;;8.95;78.36;98337.09;4869101;29;20056;-87
2023/10/16 07:51:25;;;;;;;10.70;3.95;;;;;;;8.57;78.31;98299.69;4860946;29;20053;-88
2023/10/16 07:53:53;;;;;;;10.25;3.80;;;;;;;8.46;78.49;98293.00;4850705;29;20069;-87
2023/10/16 07:56:28;;;;;;;8.15;4.00;;;;;;;8.77;78.73;98343.72;4864342;29;20049;-87
2023/10/16 07:59:11;;;;;;;8.90;3.30;;;;;;;8.59;78.53;98332.06;4857373;29;20123;-85
2023/10/16 08:01:58;;;;;;;7.68;3.47;;;;;;;8.63;79.04;98336.53;4872541;29;20054;-87
2023/10/16 08:07:04;;;;;;;12.52;4.35;;;;;;;8.64;79.64;98296.47;4865395;29;20068;-86
2023/10/16 08:09:57;;;;;;;11.98;4.38;;;;;;;8.72;79.17;98313.94;4877604;29;20136;-86
2023/10/16 08:15:08;;;;;;;15.73;6.55;;;;;;;8.82;79.01;98338.09;4896710;29;20086;-87
2023/10/16 08:17:36;;;;;;;10.82;5.40;;;;;;;8.52;78.82;98277.28;4857195;29;20049;-89
2023/10/16 08:20:08;;;;;;;8.73;4.03;;;;;;;8.68;78.24;98302.88;4868430;29;20053;-88
2023/10/16 08:22:35;;;;;;;8.23;4.13;;;;;;;8.64;78.34;98285.56;4860162;29;20075;-87
2023/10/16 08:25:04;;;;;;;10.05;3.55;;;;;;;8.56;78.11;98268.13;4875640;29;20049;-87
2023/10/16 08:30:17;;;;;;;10.05;3.70;;;;;;;8.39;78.55;98260.03;4870717;29;20573;-86
2023/10/16 08:35:19;;;;;;;8.73;3.58;;;;;;;8.46;78.64;98285.63;4858988;29;20164;-87
2023/10/16 08:37:59;;;;;;;6.85;3.72;;;;;;;8.73;79.00;98320.97;4849352;29;20045;-86
2023/10/16 08:40:39;;;;;;;6.30;3.28;;;;;;;8.82;78.38;98311.66;4877188;29;20057;-87
2023/10/16 08:43:09;;;;;;;9.48;3.42;;;;;;;8.93;78.57;98325.72;4890076;29;20068;-86
2023/10/16 08:45:55;;;;;;;6.82;3.20;;;;;;;8.66;78.59;98296.94;4877660;29;20053;-89
2023/10/16 08:48:24;;;;;;;13.90;3.75;;;;;;;8.76;77.96;98331.22;4850353;29;20048;-87
2023/10/16 08:50:52;;;;;;;9.05;3.45;;;;;;;8.50;78.30;98302.13;4872567;29;20483;-88
2023/10/16 08:53:32;;;;;;;10.88;3.50;;;;;;;8.33;78.98;98277.63;4862991;29;20053;-88
2023/10/16 08:56:03;;;;;;;5.38;2.80;;;;;;;8.68;78.32;98320.03;4868158;29;20156;-87
2023/10/16 08:58:38;;;;;;;6.13;2.83;;;;;;;8.40;78.18;98275.22;4862185;29;20570;-86
2023/10/16 09:01:09;;;;;;;7.72;3.03;;;;;;;8.16;77.80;98260.19;4885767;29;20037;-88
2023/10/16 09:03:42;;;;;;;5.53;2.80;;;;;;;7.90;77.94;98218.59;4860690;29;20057;-87
2023/10/16 09:06:08;;;;;;;7.28;2.75;;;;;;;8.47;78.51;98303.56;4883393;29;20118;-85
2023/10/16 09:08:35;;;;;;;8.18;3.20;;;;;;;8.51;79.09;98290.13;4876112;29;20037;-87
2023/10/16 09:11:08;;;;;;;;;;;;;;;8.59;77.75;98323.91;4889015;29;20080;-84
2023/10/16 09:13:35;;;;;;;7.78;2.67;;;;;;;8.46;77.08;98312.84;4888687;29;19935;-83
2023/10/16 09:16:11;;;;;;;6.10;2.58;;;;;;;8.49;77.57;98305.97;4864011;29;20056;-84
2023/10/16 09:18:39;;;;;;;9.10;3.08;;;;;;;8.33;78.23;98274.91;4870065;29;20045;-86
2023/10/16 09:21:22;;;;;;;5.65;2.85;;;;;;;8.56;77.59;98306.28;4836743;29;20057;-85
2023/10/16 09:23:58;;;;;;;9.88;3.72;;;;;;;8.56;78.30;98289.13;4850899;29;20640;-85
2023/10/16 09:26:28;;;;;;;11.45;3.20;;;;;;;8.53;78.56;98271.50;4850825;29;20124;-85
2023/10/16 09:29:05;;;;;;;9.95;3.35;;;;;;;8.70;78.30;98292.44;4870725;29;20044;-83
2023/10/16 09:31:31;;;;;;;11.70;3.53;;;;;;;8.46;77.67;98261.13;4841782;29;20160;-83
2023/10/16 09:33:58;;;;;;;10.80;3.65;;;;;;;8.19;77.52;98204.31;4864169;29;20104;-84
2023/10/16 09:36:29;;;;;;;10.55;3.53;;;;;;;8.55;77.56;98266.53;4845665;29;20484;-86
2023/10/16 09:38:59;;;;;;;10.70;3.53;;;;;;;8.52;77.38;98266.41;4877676;29;20053;-87
2023/10/16 09:44:09;;;;;;;8.10;3.38;;;;;;;8.71;78.13;98296.78;4877832;29;20049;-87
2023/10/16 09:49:11;;;;;;;6.18;2.85;;;;;;;8.72;78.37;98298.38;4901457;29;20530;-88
2023/10/16 09:51:39;;;;;;;7.65;3.10;;;;;;;8.49;77.75;98281.47;4873676;29;20057;-87
2023/10/16 09:54:09;;;;;;;;;;;;;;;8.70;78.67;98295.16;4880096;29;20430;-87
2023/10/16 09:56:38;;;;;;;6.57;2.83;;;;;;;8.57;78.63;98269.72;4887348;29;19927;-86
2023/10/16 09:59:12;;;;;;;6.93;3.00;;;;;;;8.54;79.04;98259.47;4882585;29;20048;-87
2023/10/16 10:01:42;;;;;;;11.25;3.95;;;;;;;8.72;78.99;98279.31;4886441;29;20049;-88
2023/10/16 10:04:11;;;;;;;6.97;3.28;;;;;;;8.68;78.46;98278.38;4870026;29;20065;-87
2023/10/16 10:06:57;;;;;;;10.52;3.80;;;;;;;8.87;78.89;98302.47;4868605;29;20116;-88
2023/10/16 10:09:46;;;;;;;13.27;4.55;;;;;;;8.78;78.83;98299.00;4868812;29;20055;-89
2023/10/16 10:12:28;;;;;;;12.82;4.78;;;;;;;8.67;79.48;98269.38;4883023;29;20092;-87
2023/10/16 10:15:22;;;;;;;10.98;4.75;;;;;;;8.86;78.75;98295.44;4884950;29;20049;-88
2023/10/16 10:17:55;;;;;;;11.68;3.55;;;;;;;8.70;78.91;98274.16;4870814;29;20070;-86
2023/10/16 10:20:26;;;;;;;11.23;4.28;;;;;;;8.33;78.80;98201.38;4888897;29;20041;-85
2023/10/16 10:23:08;;;;;;;13.70;4.68;;;;;;;8.93;78.81;98276.66;4867253;29;20073;-88
2023/10/16 10:25:37;;;;;;;10.55;4.10;;;;;;;8.69;78.25;98266.34;4854730;29;20060;-86
2023/10/16 10:28:28;;;;;;;11.15;4.45;;;;;;;8.71;78.69;98280.44;4857278;29;20110;-86
2023/10/16 10:31:02;;;;;;;12.93;4.13;;;;;;;8.56;78.16;98254.53;4827241;29;20048;-88
2023/10/16 10:33:36;;;;;;;14.23;4.45;;;;;;;8.76;79.12;98272.06;4843956;29;20081;-87
2023/10/16 10:36:28;;;;;;;10.20;4.40;;;;;;;8.83;78.55;98275.09;4839523;29;20050;-87
2023/10/16 10:39:21;;;;;;;11.77;4.00;;;;;;;8.72;78.47;98271.13;4867109;29;20049;-89
2023/10/16 10:42:03;;;;;;;11.85;4.55;;;;;;;8.71;78.95;98261.38;4854791;29;20056;-86
2023/10/16 10:44:39;;;;;;;10.10;4.45;;;;;;;8.79;78.87;98251.56;4848612;29;20562;-86
2023/10/16 10:47:24;;;;;;;13.45;4.65;;;;;;;8.87;79.09;98256.97;4863816;29;20061;-89
2023/10/16 10:49:58;;;;;;;12.82;4.07;;;;;;;8.66;78.90;98221.47;4867128;29;20463;-87
2023/10/16 10:52:26;;;;;;;13.52;3.90;;;;;;;8.68;78.77;98227.41;4866687;29;20045;-89
2023/10/16 10:54:59;;;;;;;10.60;4.57;;;;;;;8.80;79.14;98236.78;4863103;29;20060;-87
2023/10/16 10:57:31;;;;;;;13.30;4.47;;;;;;;8.62;79.33;98209.63;4850412;29;20067;-87
2023/10/16 11:03:22;;;;;;;16.15;5.03;;;;;;;8.74;79.54;98194.50;4878292;29;20100;-87
2023/10/16 11:05:33;;;;;;;12.88;4.90;;;;;;;8.83;80.00;98200.72;4875502;29;20064;-87
2023/10/16 11:10:44;;;;;;;9.40;4.05;;;;;;;8.77;79.14;98193.84;4861601;29;20052;-87
2023/10/16 11:13:14;;;;;;;7.07;4.00;;;;;;;8.98;78.62;98219.25;4876698;29;20140;-86
2023/10/16 11:15:54;;;;;;;13.57;4.60;;;;;;;8.86;79.51;98189.97;4851740;29;20064;-87
2023/10/16 11:18:22;;;;;;;8.18;4.25;;;;;;;9.05;79.41;98205.91;4862952;29;20041;-86
2023/10/16 11:20:51;;;;;;;6.88;4.15;;;;;;;9.04;78.80;98201.56;4885137;29;20042;-88
2023/10/16 11:23:21;;;;;;;9.13;4.30;;;;;;;8.96;79.18;98171.63;4861589;29;20052;-86
2023/10/16 11:25:52;;;;;;;8.65;3.95;;;;;;;9.04;78.71;98181.66;4874145;29;20094;-88
2023/10/16 11:28:21;;;;;;;8.98;4.32;;;;;;;9.27;78.71;98210.25;4861491;29;20046;-87
2023/10/16 11:30:49;;;;;;;7.70;3.85;;;;;;;9.07;78.81;98178.28;4879859;29;20089;-87
2023/10/16 11:34:00;;;;;;;6.60;3.92;;;;;;;9.14;78.88;98175.88;4880659;29;20060;-87
2023/10/16 11:36:31;;;;;;;7.43;3.92;;;;;;;9.31;78.28;98199.47;4881627;29;20044;-86
2023/10/16 11:39:02;;;;;;;11.48;4.43;;;;;;;9.29;78.68;98188.88;4864582;29;20049;-86
2023/10/16 11:41:32;;;;;;;10.40;4.20;;;;;;;9.02;78.35;98143.06;4879927;29;20066;-88
2023/10/16 11:44:13;;;;;;;10.18;4.13;;;;;;;9.38;77.97;98188.84;4880655;29;20048;-87
2023/10/16 11:47:06;;;;;;;8.63;4.18;;;;;;;9.28;78.32;98191.97;4812869;29;20059;-86
2023/10/16 11:49:42;;;;;;;7.70;4.57;;;;;;;9.12;78.75;98161.75;4772167;29;20062;-88
2023/10/16 11:52:08;;;;;;;9.40;4.77;;;;;;;8.96;78.36;98161.53;4793911;29;20210;-88
2023/10/16 11:54:40;;;;;;;7.07;4.15;;;;;;;9.04;78.94;98168.88;4778406;29;20051;-88
2023/10/16 11:57:13;;;;;;;8.82;4.22;;;;;;;9.05;79.04;98167.72;4788505;29;20099;-86
2023/10/16 11:59:40;;;;;;;9.52;4.43;;;;;;;9.04;78.65;98163.41;4793982;29;20114;-87
2023/10/16 12:02:18;;;;;;;;;;;;;;;9.15;78.41;98185.63;4806547;29;20203;-87
2023/10/16 12:04:44;;;;;;;8.65;4.10;;;;;;;9.15;79.02;98172.78;4809469;29;19925;-89
2023/10/16 12:07:14;;;;;;;8.60;4.03;;;;;;;9.05;78.57;98135.03;4805686;29;20050;-86
2023/10/16 12:09:48;;;;;;;12.25;5.20;;;;;;;9.23;79.02;98151.25;4783360;29;20043;-88
2023/10/16 12:12:24;;;;;;;8.80;4.70;;;;;;;9.22;79.25;98166.00;4825148;29;20055;-86
2023/10/16 12:14:53;;;;;;;12.05;5.30;;;;;;;9.10;78.91;98132.09;4811842;29;20068;-86
2023/10/16 12:17:21;;;;;;;8.50;4.07;;;;;;;9.25;78.64;98152.50;4780609;29;20051;-85
2023/10/16 12:19:51;;;;;;;9.95;4.60;;;;;;;9.33;79.35;98164.47;4807533;29;20312;-87
2023/10/16 12:22:20;;;;;;;8.93;4.82;;;;;;;9.32;79.09;98157.44;4778489;30;20626;-88
2023/10/16 12:24:49;;;;;;;8.50;4.53;;;;;;;9.41;78.77;98169.09;4834760;29;20100;-87
2023/10/16 12:27:15;;;;;;;11.98;4.88;;;;;;;9.08;78.60;98107.09;4829353;29;20054;-87
2023/10/16 12:29:43;;;;;;;8.13;4.93;;;;;;;9.38;78.52;98139.75;4830053;29;20049;-87
2023/10/16 12:32:10;;;;;;;7.70;4.30;;;;;;;9.12;78.60;98102.56;4829792;29;20458;-87
2023/10/16 12:34:40;;;;;;;9.05;4.57;;;;;;;9.40;78.56;98140.19;4830589;29;20041;-86
2023/10/16 12:37:07;;;;;;;12.40;4.57;;;;;;;9.42;77.91;98148.84;4846419;29;20054;-86
2023/10/16 12:39:44;;;;;;;11.33;4.40;;;;;;;9.61;78.49;98164.75;4850091;29;20052;-85
2023/10/16 12:42:15;;;;;;;10.40;4.72;;;;;;;9.30;78.58;98121.50;4849859;29;20050;-87
2023/10/16 12:44:45;;;;;;;8.30;4.30;;;;;;;9.56;77.80;98170.38;4835950;29;20049;-87
2023/10/16 12:47:14;;;;;;;10.18;4.88;;;;;;;9.57;77.93;98175.53;4848768;29;20201;-88
2023/10/16 12:49:41;;;;;;;8.80;4.28;;;;;;;9.36;77.48;98142.78;4848446;29;20136;-87
2023/10/16 12:52:07;;;;;;;6.82;4.13;;;;;;;9.25;78.10;98114.34;4865111;29;20037;-87
2023/10/16 12:54:33;;;;;;;10.47;4.07;;;;;;;9.43;77.89;98160.56;4863542;29;20093;-87
2023/10/16 12:57:02;;;;;;;10.13;3.90;;;;;;;9.54;77.63;98164.47;4866333;29;20203;-86
2023/10/16 12:59:29;;;;;;;7.57;3.97;;;;;;;9.59;77.87;98165.06;4866785;29;20065;-87
2023/10/16 13:01:55;;;;;;;;;;;;;;;9.54;77.32;98169.94;4867539;29;20055;-88
2023/10/16 13:04:24;;;;;;;9.00;4.27;;;;;;;9.36;77.43;98152.91;4868840;29;19924;-86
2023/10/16 13:06:50;;;;;;;8.45;4.28;;;;;;;9.14;78.03;98118.63;4874689;29;20105;-88
2023/10/16 13:09:18;;;;;;;11.13;4.53;;;;;;;9.21;78.55;98129.78;4853732;29;20061;-87
2023/10/16 13:11:46;;;;;;;10.82;4.60;;;;;;;9.37;78.57;98159.94;4852473;29;20094;-87
2023/10/16 13:14:12;;;;;;;7.40;4.47;;;;;;;9.22;79.10;98169.53;4849515;29;20045;-86
2023/10/16 13:16:40;;;;;;;10.10;4.63;;;;;;;9.11;79.52;98141.09;4850690;29;20136;-88
2023/10/16 13:19:10;;;;;;;11.70;5.20;;;;;;;9.31;79.32;98167.56;4848697;29;20045;-87
2023/10/16 13:21:41;;;;;;;8.27;4.38;;;;;;;9.14;79.05;98163.03;4842703;29;20061;-87
2023/10/16 13:24:19;;;;;;;8.40;4.93;;;;;;;9.23;78.94;98171.13;4839268;29;20088;-87
2023/10/16 13:26:52;;;;;;;10.77;4.20;;;;;;;8.86;78.57;98116.38;4834021;29;20431;-86
2023/10/16 13:29:19;;;;;;;9.52;4.88;;;;;;;9.16;78.75;98141.66;4864098;29;20042;-86
2023/10/16 13:31:45;;;;;;;14.32;8.25;;;;;;;9.29;79.55;98164.34;4868185;29;20116;-87
2023/10/16 13:34:18;;;;;;;10.15;6.63;;;;;;;9.24;79.04;98164.56;4842035;29;20042;-87
2023/10/16 13:36:56;;;;;;;32.17;17.63;;;;;;;9.06;78.99;98139.34;4846487;29;20238;-87
2023/10/16 13:39:31;;;;;;;32.65;17.45;;;;;;;8.85;79.29;98105.81;4864856;29;20041;-86
2023/10/16 13:41:59;;;;;;;18.83;9.27;;;;;;;8.87;78.91;98109.00;4866393;29;20060;-87
2023/10/16 13:44:25;;;;;;;16.27;8.18;;;;;;;8.77;79.00;98109.38;4850547;29;20049;-86
2023/10/16 13:46:53;;;;;;;19.40;8.40;;;;;;;9.11;79.19;98146.53;4865916;29;20057;-86
2023/10/16 13:49:24;;;;;;;16.95;7.30;;;;;;;9.08;79.26;98156.16;4865196;29;20052;-86
2023/10/16 13:51:53;;;;;;;9.30;5.43;;;;;;;9.10;79.21;98162.06;4849256;29;20045;-86
2023/10/16 13:54:19;;;;;;;14.43;5.63;;;;;;;8.96;79.04;98153.34;4876444;29;20041;-87
2023/10/16 13:56:48;;;;;;;13.18;5.40;;;;;;;8.86;79.11;98140.91;4859612;29;20048;-86
2023/10/16 13:59:18;;;;;;;8.75;4.78;;;;;;;8.88;79.50;98148.78;4871843;29;20042;-87
2023/10/16 14:01:46;;;;;;;12.98;5.43;;;;;;;9.11;79.04;98171.88;4869854;29;20041;-87
2023/10/16 14:04:14;;;;;;;12.95;5.40;;;;;;;9.12;79.42;98178.09;4852020;29;20519;-87
2023/10/16 14:06:46;;;;;;;13.13;5.30;;;;;;;9.08;79.92;98164.34;4868199;29;20045;-86
2023/10/16 14:09:20;;;;;;;12.15;5.15;;;;;;;8.76;79.19;98130.41;4858888;29;20041;-85
2023/10/16 14:11:47;;;;;;;12.80;5.68;;;;;;;8.98;79.87;98150.31;4869920;29;20038;-87
2023/10/16 14:14:20;;;;;;;15.27;5.88;;;;;;;9.14;79.83;98190.28;4851084;29;20435;-85
2023/10/16 14:17:03;;;;;;;14.50;6.55;;;;;;;9.09;80.27;98165.94;4867128;29;20418;-85
2023/10/16 14:19:32;;;;;;;14.65;6.80;;;;;;;9.04;79.76;98152.50;4841294;29;20084;-85
2023/10/16 14:22:06;;;;;;;18.48;6.82;;;;;;;9.06;79.67;98163.88;4827229;29;20177;-85
2023/10/16 14:24:34;;;;;;;14.25;5.70;;;;;;;8.78;79.44;98144.50;4826675;29;20084;-85
2023/10/16 14:27:01;;;;;;;13.60;5.88;;;;;;;8.81;79.10;98134.88;4793466;29;20060;-86
2023/10/16 14:29:28;;;;;;;13.82;5.50;;;;;;;8.91;78.89;98145.38;4824627;29;20492;-85
2023/10/16 14:31:56;;;;;;;12.40;5.93;;;;;;;9.11;78.65;98177.31;4807374;29;20046;-86
2023/10/16 14:34:23;;;;;;;13.05;5.53;;;;;;;9.02;77.85;98153.97;4827342;29;20046;-85
2023/10/16 14:36:53;;;;;;;12.20;5.22;;;;;;;9.06;78.74;98161.13;4833056;29;20042;-85
2023/10/16 14:39:30;;;;;;;17.00;5.88;;;;;;;9.17;78.56;98181.44;4814033;29;20127;-87
2023/10/16 14:42:05;;;;;;;12.88;5.80;;;;;;;8.82;78.81;98110.00;4825705;29;20053;-86
2023/10/16 14:44:32;;;;;;;12.68;6.03;;;;;;;8.91;78.98;98134.47;4829876;29;20062;-86
2023/10/16 14:46:59;;;;;;;16.80;5.85;;;;;;;8.66;79.61;98101.59;4824513;29;20058;-87
2023/10/16 14:49:25;;;;;;;12.63;5.50;;;;;;;9.14;79.04;98163.03;4849951;29;20056;-86
2023/10/16 14:51:53;;;;;;;17.00;5.30;;;;;;;8.75;79.15;98100.78;4836312;29;20287;-86
2023/10/16 14:54:21;;;;;;;15.20;5.63;;;;;;;8.81;79.27;98094.78;4847469;29;20082;-86
2023/10/16 14:56:49;;;;;;;13.52;5.40;;;;;;;8.60;79.29;98069.44;4845192;29;20049;-86
2023/10/16 14:59:27;;;;;;;11.40;5.07;;;;;;;9.20;78.90;98152.69;4829845;29;20077;-86
2023/10/16 15:01:58;;;;;;;14.90;6.03;;;;;;;9.13;78.95;98146.97;4845836;29;20132;-87
2023/10/16 15:04:24;;;;;;;11.00;5.57;;;;;;;8.73;79.49;98095.63;4849047;29;20038;-87
2023/10/16 15:06:53;;;;;;;17.77;6.57;;;;;;;8.60;79.32;98078.41;4847203;29;20052;-87
2023/10/16 15:09:25;;;;;;;17.95;6.13;;;;;;;8.85;79.93;98127.63;4859208;29;20068;-87
2023/10/16 15:11:55;;;;;;;14.02;6.35;;;;;;;8.85;79.70;98138.53;4869392;29;20084;-87
2023/10/16 15:14:22;;;;;;;11.70;5.90;;;;;;;8.48;79.97;98078.34;4855675;29;20041;-88
2023/10/16 15:16:48;;;;;;;19.50;7.03;;;;;;;8.73;80.21;98090.19;4865589;29;20064;-86
2023/10/16 15:19:16;;;;;;;17.75;7.68;;;;;;;9.00;79.26;98124.31;4853084;29;20050;-87
2023/10/16 15:21:44;;;;;;;16.02;6.97;;;;;;;9.21;79.60;98157.03;4885223;29;20064;-85
2023/10/16 15:24:11;;;;;;;21.48;8.07;;;;;;;9.21;79.45;98154.31;4860051;29;20080;-86
2023/10/16 15:26:40;;;;;;;13.55;6.43;;;;;;;8.97;79.60;98114.06;4880992;29;20113;-84
2023/10/16 15:29:13;;;;;;;11.35;5.70;;;;;;;9.02;78.88;98126.72;4881351;29;20070;-87
2023/10/16 15:31:40;;;;;;;12.18;5.10;;;;;;;9.02;78.38;98152.03;4881584;29;20097;-86
2023/10/16 15:34:08;;;;;;;8.65;5.40;;;;;;;8.92;78.92;98133.34;4880794;29;20053;-87
2023/10/16 15:36:38;;;;;;;17.13;4.40;;;;;;;8.85;77.69;98114.00;4882763;29;20080;-85
2023/10/16 15:39:05;;;;;;;12.68;4.97;;;;;;;9.17;78.20;98154.19;4881198;29;20049;-86
2023/10/16 15:41:32;;;;;;;9.75;3.80;;;;;;;8.88;77.09;98097.78;4897147;29;20049;-85
2023/10/16 15:44:02;;;;;;;8.18;4.55;;;;;;;8.99;76.34;98108.28;4868836;29;20041;-87
2023/10/16 15:46:31;;;;;;;8.55;4.47;;;;;;;9.10;76.78;98140.25;4883197;29;20057;-84
2023/10/16 15:48:59;;;;;;;7.60;3.78;;;;;;;9.11;76.41;98152.78;4872186;29;20049;-85
2023/10/16 15:51:30;;;;;;;11.07;3.88;;;;;;;9.04;75.60;98136.16;4836761;29;20049;-87
2023/10/16 15:53:56;;;;;;;14.73;3.92;;;;;;;8.82;76.82;98118.19;4853102;29;20055;-86
2023/10/16 15:56:23;;;;;;;14.75;4.22;;;;;;;8.84;77.44;98115.94;4827296;29;20052;-87
2023/10/16 15:58:58;;;;;;;11.50;3.97;;;;;;;9.06;77.40;98154.91;4872448;29;20101;-86
2023/10/16 16:01:25;;;;;;;8.20;4.18;;;;;;;9.10;78.06;98148.44;4866683;29;20045;-85
2023/10/16 16:03:57;;;;;;;12.05;4.97;;;;;;;8.94;77.06;98120.19;4865177;29;20507;-89
2023/10/16 16:06:26;;;;;;;15.02;4.95;;;;;;;8.52;77.48;98079.28;4848697;29;20065;-86
2023/10/16 16:08:53;;;;;;;14.68;5.82;;;;;;;8.79;77.89;98126.22;4865358;29;20073;-86
2023/10/16 16:11:21;;;;;;;16.92;6.78;;;;;;;8.68;77.79;98091.19;4850214;29;20097;-86
2023/10/16 16:13:53;;;;;;;11.77;5.82;;;;;;;9.01;78.28;98136.03;4848719;29;20065;-86
2023/10/16 16:16:21;;;;;;;12.52;5.10;;;;;;;9.02;77.13;98143.06;4866354;29;20037;-85
2023/10/16 16:18:48;;;;;;;15.23;4.90;;;;;;;8.95;77.71;98116.34;4866508;29;20129;-86
2023/10/16 16:21:16;;;;;;;10.10;4.40;;;;;;;9.02;77.47;98129.44;4866097;29;20050;-87
2023/10/16 16:23:42;;;;;;;;;;;;;;;8.96;76.09;98138.94;4867306;29;20045;-85
2023/10/16 16:26:12;;;;;;;6.63;3.72;;;;;;;8.66;76.11;98122.59;4864584;29;19924;-85
2023/10/16 16:28:39;;;;;;;12.32;3.90;;;;;;;8.70;77.52;98120.81;4874672;29;20049;-86
2023/10/16 16:31:06;;;;;;;;;;;;;;;8.91;77.47;98148.91;4865224;29;20049;-84
2023/10/16 16:33:33;;;;;;;8.90;3.88;;;;;;;8.81;76.93;98122.03;4866387;29;19923;-86
2023/10/16 16:36:00;;;;;;;6.10;3.85;;;;;;;8.78;76.99;98119.19;4850921;29;20125;-85
2023/10/16 16:38:28;;;;;;;7.95;4.13;;;;;;;8.77;77.98;98115.63;4869778;29;20076;-85
2023/10/16 16:40:55;;;;;;;7.28;3.90;;;;;;;8.77;77.60;98112.91;4853105;29;20507;-85
2023/10/16 16:43:21;;;;;;;8.90;4.65;;;;;;;8.89;78.28;98118.44;4866277;29;20045;-84
2023/10/16 16:45:48;;;;;;;10.57;4.88;;;;;;;8.91;77.08;98127.09;4850372;29;20101;-85
2023/10/16 16:48:20;;;;;;;11.60;4.07;;;;;;;8.91;76.78;98134.47;4864509;29;20120;-86
2023/10/16 16:50:46;;;;;;;9.18;4.13;;;;;;;8.79;76.57;98118.03;4853591;29;20103;-85
2023/10/16 16:53:14;;;;;;;10.00;4.40;;;;;;;8.42;76.24;98085.09;4872746;29;20049;-87
2023/10/16 16:55:41;;;;;;;7.20;4.20;;;;;;;8.40;77.06;98071.00;4862790;29;20297;-83
2023/10/16 16:58:10;;;;;;;;;;;;;;;8.66;77.54;98133.50;4866301;29;20045;-85
2023/10/16 17:00:37;;;;;;;11.20;4.97;;;;;;;8.47;77.74;98099.31;4863731;29;20408;-85
2023/10/16 17:03:04;;;;;;;9.85;5.22;;;;;;;8.78;79.00;98128.16;4863876;29;20134;-87
2023/10/16 17:05:34;;;;;;;12.23;5.78;;;;;;;8.58;79.43;98079.88;4833736;29;20053;-84
2023/10/16 17:08:01;;;;;;;16.63;6.38;;;;;;;8.92;79.82;98114.28;4866284;29;20412;-85
2023/10/16 17:10:30;;;;;;;9.57;5.60;;;;;;;8.96;79.10;98117.13;4865854;29;20030;-86
2023/10/16 17:12:56;;;;;;;13.48;6.45;;;;;;;8.76;79.59;98086.81;4866143;29;20105;-86
2023/10/16 17:15:23;;;;;;;10.07;6.10;;;;;;;8.94;79.39;98106.56;4867483;29;20045;-88
2023/10/16 17:17:53;;;;;;;16.67;6.57;;;;;;;9.02;79.48;98113.88;4865794;29;20121;-86
2023/10/16 17:20:20;;;;;;;16.20;6.15;;;;;;;9.10;79.28;98121.19;4867959;29;20055;-85
2023/10/16 17:22:51;;;;;;;12.05;6.60;;;;;;;9.09;79.35;98118.78;4835900;29;20486;-87
2023/10/16 17:25:21;;;;;;;11.95;6.07;;;;;;;9.03;79.05;98101.84;4867572;29;20041;-91
2023/10/16 17:27:49;;;;;;;14.07;6.47;;;;;;;9.11;79.24;98105.63;4856005;29;20096;-87
2023/10/16 17:30:15;;;;;;;10.52;5.55;;;;;;;9.13;77.70;98109.59;4861347;29;20085;-87
2023/10/16 17:32:43;;;;;;;13.03;5.37;;;;;;;9.24;78.66;98104.56;4873602;29;20415;-92
2023/10/16 17:35:11;;;;;;;13.85;5.88;;;;;;;9.33;77.87;98107.22;4869334;29;20045;-89
2023/10/16 17:37:40;;;;;;;11.15;6.05;;;;;;;9.01;78.07;98052.31;4869000;29;20052;-88
2023/10/16 17:40:11;;;;;;;19.42;5.78;;;;;;;9.27;78.26;98097.63;4880420;29;20049;-82
2023/10/16 17:42:39;;;;;;;18.42;5.32;;;;;;;9.11;77.14;98100.97;4889217;29;20043;-94
2023/10/16 17:45:06;;;;;;;9.02;5.05;;;;;;;9.10;77.37;98095.84;4887382;29;20404;-93
2023/10/16 17:47:35;;;;;;;10.95;5.07;;;;;;;8.82;78.47;98055.50;4877497;29;20090;-85
2023/10/16 17:50:07;;;;;;;13.00;5.97;;;;;;;9.20;78.63;98105.56;4867499;29;20037;-84
2023/10/16 17:52:36;;;;;;;8.93;4.70;;;;;;;8.75;77.56;98055.25;4855868;29;20125;-88
2023/10/16 17:55:04;;;;;;;13.70;6.10;;;;;;;9.02;79.08;98088.53;4859328;29;20046;-84
2023/10/16 17:57:39;;;;;;;16.70;5.88;;;;;;;8.95;79.67;98067.28;4879226;29;20041;-90
2023/10/16 18:00:09;;;;;;;13.40;5.30;;;;;;;9.15;78.80;98079.31;4865394;29;20046;-90
2023/10/16 18:02:36;;;;;;;9.63;4.72;;;;;;;9.22;77.01;98090.47;4874987;29;20042;-90
2023/10/16 18:05:04;;;;;;;11.60;5.37;;;;;;;8.79;77.32;98039.03;4870992;29;20041;-90
2023/10/16 18:07:31;;;;;;;11.90;4.63;;;;;;;8.83;76.53;98056.31;4869854;29;20305;-90
2023/10/16 18:10:07;;;;;;;12.88;4.90;;;;;;;9.06;76.77;98089.47;4889741;29;20080;-89
2023/10/16 18:12:35;;;;;;;11.32;4.90;;;;;;;9.05;75.26;98072.31;4890436;29;20052;-90
2023/10/16 18:15:08;;;;;;;11.57;4.57;;;;;;;8.86;75.02;98047.47;4888656;29;20080;-85